sensor_id;sensor_type;location;lat;lon;timestamp;pressure;altitude;pressure_sealevel;temperature;humidity
48200;BME280;33990;44.602;10.976;2022-10-12T00:02:27;101672.63;;;22.64;57.52
48200;BME280;33990;44.602;10.976;2022-10-12T00:04:54;101672.63;;;22.64;57.54
48200;BME280;33990;44.602;10.976;2022-10-12T00:07:22;101674.47;;;22.64;57.47
48200;BME280;33990;44.602;10.976;2022-10-12T00:09:49;101680.72;;;22.64;57.58
48200;BME280;33990;44.602;10.976;2022-10-12T00:12:16;101678.03;;;22.64;57.25
48200;BME280;33990;44.602;10.976;2022-10-12T00:14:43;101676.22;;;22.65;57.37
48200;BME280;33990;44.602;10.976;2022-10-12T00:17:11;101673.63;;;22.63;57.41
48200;BME280;33990;44.602;10.976;2022-10-12T00:19:38;101666.53;;;22.62;57.49
48200;BME280;33990;44.602;10.976;2022-10-12T00:22:06;101669.22;;;22.62;57.36
48200;BME280;33990;44.602;10.976;2022-10-12T00:24:33;101677.31;;;22.62;57.40
48200;BME280;33990;44.602;10.976;2022-10-12T00:27:05;101671.06;;;22.62;57.38
48200;BME280;33990;44.602;10.976;2022-10-12T00:29:32;101675.47;;;22.63;57.28
48200;BME280;33990;44.602;10.976;2022-10-12T00:32:00;101668.38;;;22.62;57.39
48200;BME280;33990;44.602;10.976;2022-10-12T00:34:27;101667.53;;;22.61;57.33
48200;BME280;33990;44.602;10.976;2022-10-12T00:36:55;101661.28;;;22.61;57.15
48200;BME280;33990;44.602;10.976;2022-10-12T00:39:22;101664.81;;;22.61;57.32
48200;BME280;33990;44.602;10.976;2022-10-12T00:41:49;101663.09;;;22.60;57.21
48200;BME280;33990;44.602;10.976;2022-10-12T00:44:34;101662.13;;;22.61;57.31
48200;BME280;33990;44.602;10.976;2022-10-12T00:47:27;101663.09;;;22.60;57.24
48200;BME280;33990;44.602;10.976;2022-10-12T00:50:03;101656.00;;;22.59;57.13
48200;BME280;33990;44.602;10.976;2022-10-12T00:55:22;101654.16;;;22.60;57.07
48200;BME280;33990;44.602;10.976;2022-10-12T00:57:52;101655.13;;;22.59;57.24
48200;BME280;33990;44.602;10.976;2022-10-12T01:00:21;101656.00;;;22.59;57.14
48200;BME280;33990;44.602;10.976;2022-10-12T01:02:50;101657.84;;;22.59;57.03
48200;BME280;33990;44.602;10.976;2022-10-12T01:05:19;101660.53;;;22.59;57.04
48200;BME280;33990;44.602;10.976;2022-10-12T01:07:47;101653.44;;;22.58;57.01
48200;BME280;33990;44.602;10.976;2022-10-12T01:10:15;101656.00;;;22.59;57.21
48200;BME280;33990;44.602;10.976;2022-10-12T01:12:43;101657.00;;;22.58;57.07
48200;BME280;33990;44.602;10.976;2022-10-12T01:15:13;101651.59;;;22.58;57.09
48200;BME280;33990;44.602;10.976;2022-10-12T01:18:01;101655.28;;;22.57;57.08
48200;BME280;33990;44.602;10.976;2022-10-12T01:26:50;101650.00;;;22.56;57.03
48200;BME280;33990;44.602;10.976;2022-10-12T01:35:11;101658.09;;;22.56;56.97
48200;BME280;33990;44.602;10.976;2022-10-12T01:40:44;101652.69;;;22.56;56.86
48200;BME280;33990;44.602;10.976;2022-10-12T01:43:09;101659.94;;;22.55;56.86
48200;BME280;33990;44.602;10.976;2022-10-12T01:45:36;101658.09;;;22.56;56.86
48200;BME280;33990;44.602;10.976;2022-10-12T01:48:04;101661.66;;;22.56;56.79
48200;BME280;33990;44.602;10.976;2022-10-12T01:50:44;101651.00;;;22.55;56.83
48200;BME280;33990;44.602;10.976;2022-10-12T01:53:24;101652.84;;;22.54;56.82
48200;BME280;33990;44.602;10.976;2022-10-12T01:56:05;101650.00;;;22.56;56.90
48200;BME280;33990;44.602;10.976;2022-10-12T01:58:57;101650.16;;;22.54;56.89
48200;BME280;33990;44.602;10.976;2022-10-12T02:05:07;101637.66;;;22.53;56.88
48200;BME280;33990;44.602;10.976;2022-10-12T02:07:44;101646.59;;;22.54;56.73
48200;BME280;33990;44.602;10.976;2022-10-12T02:10:21;101649.28;;;22.54;56.75
48200;BME280;33990;44.602;10.976;2022-10-12T02:12:50;101653.00;;;22.53;56.80
48200;BME280;33990;44.602;10.976;2022-10-12T02:15:21;101646.72;;;22.52;56.65
48200;BME280;33990;44.602;10.976;2022-10-12T02:17:51;101644.91;;;22.53;56.63
48200;BME280;33990;44.602;10.976;2022-10-12T02:20:20;101642.19;;;22.53;56.79
48200;BME280;33990;44.602;10.976;2022-10-12T02:22:49;101641.31;;;22.52;56.58
48200;BME280;33990;44.602;10.976;2022-10-12T02:25:20;101642.31;;;22.51;56.66
48200;BME280;33990;44.602;10.976;2022-10-12T02:27:53;101644.91;;;22.53;56.67
48200;BME280;33990;44.602;10.976;2022-10-12T02:30:24;101638.63;;;22.52;56.73
48200;BME280;33990;44.602;10.976;2022-10-12T02:33:07;101630.66;;;22.51;56.64
48200;BME280;33990;44.602;10.976;2022-10-12T02:35:44;101639.59;;;22.51;56.75
48200;BME280;33990;44.602;10.976;2022-10-12T02:38:41;101633.38;;;22.51;56.61
48200;BME280;33990;44.602;10.976;2022-10-12T02:41:20;101630.66;;;22.51;56.71
48200;BME280;33990;44.602;10.976;2022-10-12T02:44:18;101629.81;;;22.50;56.66
48200;BME280;33990;44.602;10.976;2022-10-12T02:46:48;101633.38;;;22.51;56.62
48200;BME280;33990;44.602;10.976;2022-10-12T02:49:16;101632.50;;;22.50;56.52
48200;BME280;33990;44.602;10.976;2022-10-12T02:51:45;101639.75;;;22.50;56.52
48200;BME280;33990;44.602;10.976;2022-10-12T02:54:14;101630.81;;;22.49;56.64
48200;BME280;33990;44.602;10.976;2022-10-12T02:56:43;101634.34;;;22.50;56.73
48200;BME280;33990;44.602;10.976;2022-10-12T02:59:13;101632.50;;;22.50;56.62
48200;BME280;33990;44.602;10.976;2022-10-12T03:01:41;101638.91;;;22.49;56.73
48200;BME280;33990;44.602;10.976;2022-10-12T03:04:08;101641.59;;;22.49;56.67
48200;BME280;33990;44.602;10.976;2022-10-12T03:06:36;101644.31;;;22.49;56.73
48200;BME280;33990;44.602;10.976;2022-10-12T03:09:03;101637.06;;;22.50;56.83
48200;BME280;33990;44.602;10.976;2022-10-12T03:11:31;101632.66;;;22.49;56.74
48200;BME280;33990;44.602;10.976;2022-10-12T03:13:58;101637.16;;;22.48;56.51
48200;BME280;33990;44.602;10.976;2022-10-12T03:16:26;101629.97;;;22.49;56.53
48200;BME280;33990;44.602;10.976;2022-10-12T03:18:53;101628.22;;;22.48;56.63
48200;BME280;33990;44.602;10.976;2022-10-12T03:21:20;101634.47;;;22.48;56.75
48200;BME280;33990;44.602;10.976;2022-10-12T03:23:48;101637.16;;;22.48;56.53
48200;BME280;33990;44.602;10.976;2022-10-12T03:26:15;101642.56;;;22.48;56.78
48200;BME280;33990;44.602;10.976;2022-10-12T03:28:42;101641.72;;;22.48;56.89
48200;BME280;33990;44.602;10.976;2022-10-12T03:31:10;101642.56;;;22.48;56.66
48200;BME280;33990;44.602;10.976;2022-10-12T03:33:37;101630.91;;;22.48;56.57
48200;BME280;33990;44.602;10.976;2022-10-12T03:36:05;101637.16;;;22.48;56.49
48200;BME280;33990;44.602;10.976;2022-10-12T03:38:32;101634.47;;;22.48;56.53
48200;BME280;33990;44.602;10.976;2022-10-12T03:41:00;101638.16;;;22.47;56.46
48200;BME280;33990;44.602;10.976;2022-10-12T03:43:33;101642.72;;;22.46;56.32
48200;BME280;33990;44.602;10.976;2022-10-12T03:46:01;101643.56;;;22.47;56.36
48200;BME280;33990;44.602;10.976;2022-10-12T03:48:28;101639.16;;;22.46;56.27
48200;BME280;33990;44.602;10.976;2022-10-12T03:50:55;101647.25;;;22.46;56.45
48200;BME280;33990;44.602;10.976;2022-10-12T03:53:23;101641.88;;;22.46;56.29
48200;BME280;33990;44.602;10.976;2022-10-12T03:55:50;101637.47;;;22.45;56.21
48200;BME280;33990;44.602;10.976;2022-10-12T03:58:17;101647.41;;;22.44;56.23
48200;BME280;33990;44.602;10.976;2022-10-12T04:00:45;101641.13;;;22.44;56.17
48200;BME280;33990;44.602;10.976;2022-10-12T04:03:12;101643.81;;;22.44;56.39
48200;BME280;33990;44.602;10.976;2022-10-12T04:05:40;101648.25;;;22.45;56.30
48200;BME280;33990;44.602;10.976;2022-10-12T04:08:07;101650.09;;;22.44;56.39
48200;BME280;33990;44.602;10.976;2022-10-12T04:10:35;101651.91;;;22.44;56.17
48200;BME280;33990;44.602;10.976;2022-10-12T04:13:02;101644.81;;;22.43;56.43
48200;BME280;33990;44.602;10.976;2022-10-12T04:15:30;101647.50;;;22.43;56.45
48200;BME280;33990;44.602;10.976;2022-10-12T04:17:57;101648.38;;;22.43;56.30
48200;BME280;33990;44.602;10.976;2022-10-12T04:20:24;101650.22;;;22.43;56.45
48200;BME280;33990;44.602;10.976;2022-10-12T04:22:52;101648.38;;;22.43;56.55
48200;BME280;33990;44.602;10.976;2022-10-12T04:25:19;101644.81;;;22.43;56.50
48200;BME280;33990;44.602;10.976;2022-10-12T04:27:46;101651.91;;;22.44;56.58
48200;BME280;33990;44.602;10.976;2022-10-12T04:30:13;101645.81;;;22.42;56.62
48200;BME280;33990;44.602;10.976;2022-10-12T04:32:41;101655.59;;;22.43;56.54
48200;BME280;33990;44.602;10.976;2022-10-12T04:35:08;101647.50;;;22.43;56.49
48200;BME280;33990;44.602;10.976;2022-10-12T04:37:36;101656.59;;;22.42;56.43
48200;BME280;33990;44.602;10.976;2022-10-12T04:40:04;101664.69;;;22.42;56.74
48200;BME280;33990;44.602;10.976;2022-10-12T04:42:31;101661.84;;;22.43;56.54
48200;BME280;33990;44.602;10.976;2022-10-12T04:44:58;101665.56;;;22.42;56.50
48200;BME280;33990;44.602;10.976;2022-10-12T04:47:26;101665.41;;;22.44;56.51
48200;BME280;33990;44.602;10.976;2022-10-12T04:49:53;101668.25;;;22.42;56.31
48200;BME280;33990;44.602;10.976;2022-10-12T04:52:20;101667.41;;;22.42;56.31
48200;BME280;33990;44.602;10.976;2022-10-12T04:54:48;101662.00;;;22.42;56.46
48200;BME280;33990;44.602;10.976;2022-10-12T04:57:15;101666.53;;;22.41;56.35
48200;BME280;33990;44.602;10.976;2022-10-12T04:59:42;101665.69;;;22.41;56.31
48200;BME280;33990;44.602;10.976;2022-10-12T05:02:10;101654.91;;;22.41;56.54
48200;BME280;33990;44.602;10.976;2022-10-12T05:04:37;101663.00;;;22.41;56.48
48200;BME280;33990;44.602;10.976;2022-10-12T05:07:04;101663.00;;;22.41;56.31
48200;BME280;33990;44.602;10.976;2022-10-12T05:09:32;101655.88;;;22.40;56.24
48200;BME280;33990;44.602;10.976;2022-10-12T05:11:59;101661.25;;;22.40;56.22
48200;BME280;33990;44.602;10.976;2022-10-12T05:14:26;101663.97;;;22.40;56.18
48200;BME280;33990;44.602;10.976;2022-10-12T05:16:59;101663.97;;;22.40;56.24
48200;BME280;33990;44.602;10.976;2022-10-12T05:19:26;101672.94;;;22.40;56.26
48200;BME280;33990;44.602;10.976;2022-10-12T05:21:54;101669.34;;;22.40;56.07
48200;BME280;33990;44.602;10.976;2022-10-12T05:24:21;101669.50;;;22.38;56.25
48200;BME280;33990;44.602;10.976;2022-10-12T05:26:48;101665.94;;;22.38;56.18
48200;BME280;33990;44.602;10.976;2022-10-12T05:29:16;101671.34;;;22.38;56.16
48200;BME280;33990;44.602;10.976;2022-10-12T05:31:43;101668.66;;;22.38;56.22
48200;BME280;33990;44.602;10.976;2022-10-12T05:34:11;101674.03;;;22.38;56.07
48200;BME280;33990;44.602;10.976;2022-10-12T05:36:38;101675.03;;;22.37;56.17
48200;BME280;33990;44.602;10.976;2022-10-12T05:39:05;101678.59;;;22.37;56.04
48200;BME280;33990;44.602;10.976;2022-10-12T05:41:33;101699.31;;;22.37;56.00
48200;BME280;33990;44.602;10.976;2022-10-12T05:44:00;101696.72;;;22.35;56.02
48200;BME280;33990;44.602;10.976;2022-10-12T05:46:27;101689.50;;;22.36;56.01
48200;BME280;33990;44.602;10.976;2022-10-12T05:48:54;101691.22;;;22.37;56.01
48200;BME280;33990;44.602;10.976;2022-10-12T05:51:22;101699.44;;;22.35;56.04
48200;BME280;33990;44.602;10.976;2022-10-12T05:53:55;101705.69;;;22.36;55.98
48200;BME280;33990;44.602;10.976;2022-10-12T05:56:22;101703.97;;;22.35;56.05
48200;BME280;33990;44.602;10.976;2022-10-12T05:58:49;101701.28;;;22.35;56.01
48200;BME280;33990;44.602;10.976;2022-10-12T06:01:17;101706.66;;;22.35;55.98
48200;BME280;33990;44.602;10.976;2022-10-12T06:03:44;101695.03;;;22.34;56.05
48200;BME280;33990;44.602;10.976;2022-10-12T06:06:11;101698.56;;;22.35;55.83
48200;BME280;33990;44.602;10.976;2022-10-12T06:08:39;101711.22;;;22.34;55.93
48200;BME280;33990;44.602;10.976;2022-10-12T06:11:06;101710.38;;;22.34;55.89
48200;BME280;33990;44.602;10.976;2022-10-12T06:13:33;101713.06;;;22.34;55.90
48200;BME280;33990;44.602;10.976;2022-10-12T06:16:01;101705.09;;;22.32;55.86
48200;BME280;33990;44.602;10.976;2022-10-12T06:18:28;101713.06;;;22.34;56.03
48200;BME280;33990;44.602;10.976;2022-10-12T06:20:55;101707.81;;;22.32;56.01
48200;BME280;33990;44.602;10.976;2022-10-12T06:23:43;101713.19;;;22.32;56.14
48200;BME280;33990;44.602;10.976;2022-10-12T06:26:10;101708.66;;;22.33;56.02
48200;BME280;33990;44.602;10.976;2022-10-12T06:28:37;101704.97;;;22.34;55.92
48200;BME280;33990;44.602;10.976;2022-10-12T06:31:05;101713.19;;;22.32;55.91
48200;BME280;33990;44.602;10.976;2022-10-12T06:33:32;101709.50;;;22.33;55.97
48200;BME280;33990;44.602;10.976;2022-10-12T06:35:59;101711.34;;;22.33;55.93
48200;BME280;33990;44.602;10.976;2022-10-12T06:38:27;101720.31;;;22.33;56.03
48200;BME280;33990;44.602;10.976;2022-10-12T06:40:54;101715.75;;;22.34;56.10
48200;BME280;33990;44.602;10.976;2022-10-12T06:43:21;101720.31;;;22.33;56.31
48200;BME280;33990;44.602;10.976;2022-10-12T06:45:50;101717.72;;;22.32;56.31
48200;BME280;33990;44.602;10.976;2022-10-12T06:48:17;101726.53;;;22.34;56.21
48200;BME280;33990;44.602;10.976;2022-10-12T06:50:45;101720.31;;;22.33;56.51
48200;BME280;33990;44.602;10.976;2022-10-12T06:53:13;101724.69;;;22.34;56.04
48200;BME280;33990;44.602;10.976;2022-10-12T06:55:40;101727.41;;;22.34;55.41
48200;BME280;33990;44.602;10.976;2022-10-12T06:58:07;101726.53;;;22.34;55.98
48200;BME280;33990;44.602;10.976;2022-10-12T07:00:36;101724.69;;;22.34;56.02
48200;BME280;33990;44.602;10.976;2022-10-12T07:03:03;101724.69;;;22.34;56.13
48200;BME280;33990;44.602;10.976;2022-10-12T07:05:30;101718.47;;;22.34;55.99
48200;BME280;33990;44.602;10.976;2022-10-12T07:07:58;101727.41;;;22.34;55.99
48200;BME280;33990;44.602;10.976;2022-10-12T07:10:25;101726.69;;;22.32;54.43
48200;BME280;33990;44.602;10.976;2022-10-12T07:12:52;101724.34;;;22.28;53.93
48200;BME280;33990;44.602;10.976;2022-10-12T07:15:20;101730.88;;;22.25;53.92
48200;BME280;33990;44.602;10.976;2022-10-12T07:17:47;101723.91;;;22.23;54.44
48200;BME280;33990;44.602;10.976;2022-10-12T07:20:15;101731.28;;;22.20;54.31
48200;BME280;33990;44.602;10.976;2022-10-12T07:22:42;101736.66;;;22.20;54.42
48200;BME280;33990;44.602;10.976;2022-10-12T07:25:10;101729.69;;;22.18;53.96
48200;BME280;33990;44.602;10.976;2022-10-12T07:27:37;101745.13;;;22.16;54.17
48200;BME280;33990;44.602;10.976;2022-10-12T07:30:06;101747.81;;;22.16;54.22
48200;BME280;33990;44.602;10.976;2022-10-12T07:32:33;101739.88;;;22.14;54.15
48200;BME280;33990;44.602;10.976;2022-10-12T07:35:01;101755.06;;;22.15;54.19
48200;BME280;33990;44.602;10.976;2022-10-12T07:37:28;101753.34;;;22.14;54.09
48200;BME280;33990;44.602;10.976;2022-10-12T07:39:55;101751.66;;;22.13;54.27
48200;BME280;33990;44.602;10.976;2022-10-12T07:42:23;101748.09;;;22.13;54.09
48200;BME280;33990;44.602;10.976;2022-10-12T07:44:51;101749.03;;;22.12;54.17
48200;BME280;33990;44.602;10.976;2022-10-12T07:47:18;101750.88;;;22.11;54.20
48200;BME280;33990;44.602;10.976;2022-10-12T07:49:46;101746.47;;;22.10;54.10
48200;BME280;33990;44.602;10.976;2022-10-12T07:52:13;101746.31;;;22.12;54.44
48200;BME280;33990;44.602;10.976;2022-10-12T07:54:40;101740.00;;;22.13;54.53
48200;BME280;33990;44.602;10.976;2022-10-12T07:57:08;101745.13;;;22.16;54.66
48200;BME280;33990;44.602;10.976;2022-10-12T07:59:35;101744.25;;;22.15;54.97
48200;BME280;33990;44.602;10.976;2022-10-12T08:02:02;101745.13;;;22.16;55.02
48200;BME280;33990;44.602;10.976;2022-10-12T08:04:30;101753.09;;;22.17;55.10
48200;BME280;33990;44.602;10.976;2022-10-12T08:06:57;101748.56;;;22.18;55.09
48200;BME280;33990;44.602;10.976;2022-10-12T08:09:25;101751.13;;;22.19;55.27
48200;BME280;33990;44.602;10.976;2022-10-12T08:11:52;101752.84;;;22.20;55.35
48200;BME280;33990;44.602;10.976;2022-10-12T08:14:22;101749.16;;;22.21;55.37
48200;BME280;33990;44.602;10.976;2022-10-12T08:16:49;101751.88;;;22.21;55.35
48200;BME280;33990;44.602;10.976;2022-10-12T08:19:16;101746.31;;;22.23;55.42
48200;BME280;33990;44.602;10.976;2022-10-12T08:21:44;101738.22;;;22.23;55.58
48200;BME280;33990;44.602;10.976;2022-10-12T08:24:12;101744.38;;;22.25;55.47
48200;BME280;33990;44.602;10.976;2022-10-12T08:26:39;101741.69;;;22.25;55.73
48200;BME280;33990;44.602;10.976;2022-10-12T08:29:07;101745.22;;;22.26;55.71
48200;BME280;33990;44.602;10.976;2022-10-12T08:31:35;101746.94;;;22.27;55.61
48200;BME280;33990;44.602;10.976;2022-10-12T08:34:02;101746.94;;;22.27;55.71
48200;BME280;33990;44.602;10.976;2022-10-12T08:36:30;101744.13;;;22.28;55.50
48200;BME280;33990;44.602;10.976;2022-10-12T08:38:58;101750.38;;;22.29;55.53
48200;BME280;33990;44.602;10.976;2022-10-12T08:49:40;101735.75;;;22.31;55.72
48200;BME280;33990;44.602;10.976;2022-10-12T08:52:33;101736.75;;;22.30;55.55
48200;BME280;33990;44.602;10.976;2022-10-12T08:55:16;101739.28;;;22.32;55.84
48200;BME280;33990;44.602;10.976;2022-10-12T08:57:44;101739.19;;;22.33;55.74
48200;BME280;33990;44.602;10.976;2022-10-12T09:00:16;101740.03;;;22.34;56.04
48200;BME280;33990;44.602;10.976;2022-10-12T09:05:33;101739.19;;;22.33;55.75
48200;BME280;33990;44.602;10.976;2022-10-12T09:08:09;101738.19;;;22.34;55.88
48200;BME280;33990;44.602;10.976;2022-10-12T09:10:46;101730.94;;;22.35;55.93
48200;BME280;33990;44.602;10.976;2022-10-12T09:16:02;101734.50;;;22.35;55.94
48200;BME280;33990;44.602;10.976;2022-10-12T09:18:37;101730.94;;;22.35;55.84
48200;BME280;33990;44.602;10.976;2022-10-12T09:21:12;101727.25;;;22.36;56.08
48200;BME280;33990;44.602;10.976;2022-10-12T09:23:41;101731.69;;;22.37;55.78
48200;BME280;33990;44.602;10.976;2022-10-12T09:26:20;101732.66;;;22.36;55.54
48200;BME280;33990;44.602;10.976;2022-10-12T09:28:56;101729.00;;;22.37;55.48
48200;BME280;33990;44.602;10.976;2022-10-12T09:33:58;101723.72;;;22.35;55.11
48200;BME280;33990;44.602;10.976;2022-10-12T09:36:38;101716.59;;;22.34;54.96
48200;BME280;33990;44.602;10.976;2022-10-12T09:39:17;101715.63;;;22.35;54.34
48200;BME280;33990;44.602;10.976;2022-10-12T09:41:46;101717.59;;;22.33;54.28
48200;BME280;33990;44.602;10.976;2022-10-12T09:46:58;101724.69;;;22.34;54.77
48200;BME280;33990;44.602;10.976;2022-10-12T09:49:53;101715.75;;;22.34;54.79
48200;BME280;33990;44.602;10.976;2022-10-12T09:52:31;101726.53;;;22.34;54.52
48200;BME280;33990;44.602;10.976;2022-10-12T09:57:43;101722.00;;;22.34;54.39
48200;BME280;33990;44.602;10.976;2022-10-12T10:02:52;101730.09;;;22.34;54.94
48200;BME280;33990;44.602;10.976;2022-10-12T10:05:26;101730.09;;;22.34;55.20
48200;BME280;33990;44.602;10.976;2022-10-12T10:10:56;101724.69;;;22.34;54.98
48200;BME280;33990;44.602;10.976;2022-10-12T10:13:27;101728.25;;;22.35;55.09
48200;BME280;33990;44.602;10.976;2022-10-12T10:16:09;101725.69;;;22.33;55.25
48200;BME280;33990;44.602;10.976;2022-10-12T10:18:41;101714.91;;;22.33;54.77
48200;BME280;33990;44.602;10.976;2022-10-12T10:21:11;101720.31;;;22.33;54.63
48200;BME280;33990;44.602;10.976;2022-10-12T10:23:55;101714.91;;;22.33;54.71
48200;BME280;33990;44.602;10.976;2022-10-12T10:26:24;101721.16;;;22.34;54.85
48200;BME280;33990;44.602;10.976;2022-10-12T10:29:14;101727.41;;;22.34;54.96
48200;BME280;33990;44.602;10.976;2022-10-12T10:31:42;101719.44;;;22.33;54.77
48200;BME280;33990;44.602;10.976;2022-10-12T10:36:46;101720.31;;;22.33;55.10
48200;BME280;33990;44.602;10.976;2022-10-12T10:39:24;101720.31;;;22.33;55.18
48200;BME280;33990;44.602;10.976;2022-10-12T10:41:53;101724.84;;;22.33;55.27
48200;BME280;33990;44.602;10.976;2022-10-12T10:44:28;101725.69;;;22.33;54.92
48200;BME280;33990;44.602;10.976;2022-10-12T10:46:59;101715.91;;;22.32;55.11
48200;BME280;33990;44.602;10.976;2022-10-12T10:49:37;101712.31;;;22.32;55.14
48200;BME280;33990;44.602;10.976;2022-10-12T10:52:17;101709.63;;;22.32;55.29
48200;BME280;33990;44.602;10.976;2022-10-12T10:54:46;101706.91;;;22.32;55.26
48200;BME280;33990;44.602;10.976;2022-10-12T10:57:18;101708.66;;;22.33;55.58
48200;BME280;33990;44.602;10.976;2022-10-12T10:59:53;101705.97;;;22.33;55.61
48200;BME280;33990;44.602;10.976;2022-10-12T11:02:40;101701.53;;;22.32;55.60
48200;BME280;33990;44.602;10.976;2022-10-12T11:05:42;101712.22;;;22.33;55.54
48200;BME280;33990;44.602;10.976;2022-10-12T11:08:25;101697.03;;;22.32;55.46
48200;BME280;33990;44.602;10.976;2022-10-12T11:10:59;101699.72;;;22.32;55.66
48200;BME280;33990;44.602;10.976;2022-10-12T11:13:33;101699.56;;;22.34;55.52
48200;BME280;33990;44.602;10.976;2022-10-12T11:19:23;101690.63;;;22.33;55.72
48200;BME280;33990;44.602;10.976;2022-10-12T11:22:05;101694.19;;;22.34;55.80
48200;BME280;33990;44.602;10.976;2022-10-12T11:24:42;101690.63;;;22.33;55.84
48200;BME280;33990;44.602;10.976;2022-10-12T11:27:19;101691.47;;;22.34;55.63
48200;BME280;33990;44.602;10.976;2022-10-12T11:29:53;101688.78;;;22.34;55.82
48200;BME280;33990;44.602;10.976;2022-10-12T11:32:37;101684.25;;;22.34;55.56
48200;BME280;33990;44.602;10.976;2022-10-12T11:35:13;101678.84;;;22.34;55.38
48200;BME280;33990;44.602;10.976;2022-10-12T11:37:46;101674.44;;;22.33;55.19
48200;BME280;33990;44.602;10.976;2022-10-12T11:40:22;101667.19;;;22.34;55.10
48200;BME280;33990;44.602;10.976;2022-10-12T11:43:16;101667.19;;;22.34;54.72
48200;BME280;33990;44.602;10.976;2022-10-12T11:45:48;101665.50;;;22.33;54.67
48200;BME280;33990;44.602;10.976;2022-10-12T11:48:24;101657.41;;;22.33;54.58
48200;BME280;33990;44.602;10.976;2022-10-12T11:50:54;101658.25;;;22.33;54.66
48200;BME280;33990;44.602;10.976;2022-10-12T11:58:52;101657.50;;;22.31;55.00
48200;BME280;33990;44.602;10.976;2022-10-12T12:01:56;101650.41;;;22.30;54.90
48200;BME280;33990;44.602;10.976;2022-10-12T12:04:36;101651.28;;;22.31;54.72
48200;BME280;33990;44.602;10.976;2022-10-12T12:18:24;101647.47;;;22.33;54.98
48200;BME280;33990;44.602;10.976;2022-10-12T12:23:38;101637.66;;;22.32;55.23
48200;BME280;33990;44.602;10.976;2022-10-12T12:26:14;101638.63;;;22.31;55.20
48200;BME280;33990;44.602;10.976;2022-10-12T12:28:46;101642.06;;;22.33;55.22
48200;BME280;33990;44.602;10.976;2022-10-12T12:34:16;101634.09;;;22.32;55.21
48200;BME280;33990;44.602;10.976;2022-10-12T12:36:45;101636.69;;;22.33;55.20
48200;BME280;33990;44.602;10.976;2022-10-12T12:39:30;101639.38;;;22.33;55.19
48200;BME280;33990;44.602;10.976;2022-10-12T12:42:03;101626.00;;;22.32;55.11
48200;BME280;33990;44.602;10.976;2022-10-12T12:50:00;101636.69;;;22.33;54.81
48200;BME280;33990;44.602;10.976;2022-10-12T12:52:31;101617.91;;;22.32;54.80
48200;BME280;33990;44.602;10.976;2022-10-12T13:00:27;101617.91;;;22.32;54.61
48200;BME280;33990;44.602;10.976;2022-10-12T13:20:26;101609.69;;;22.33;54.17
48200;BME280;33990;44.602;10.976;2022-10-12T13:22:56;101603.44;;;22.33;54.41
48200;BME280;33990;44.602;10.976;2022-10-12T13:25:59;101608.09;;;22.31;54.41
48200;BME280;33990;44.602;10.976;2022-10-12T13:28:30;101604.41;;;22.32;54.51
48200;BME280;33990;44.602;10.976;2022-10-12T13:31:18;101607.00;;;22.33;54.43
48200;BME280;33990;44.602;10.976;2022-10-12T13:34:14;101595.34;;;22.33;54.42
48200;BME280;33990;44.602;10.976;2022-10-12T13:39:19;101594.50;;;22.32;54.70
48200;BME280;33990;44.602;10.976;2022-10-12T13:41:49;101593.50;;;22.33;54.60
48200;BME280;33990;44.602;10.976;2022-10-12T13:44:28;101588.22;;;22.32;54.48
48200;BME280;33990;44.602;10.976;2022-10-12T13:46:58;101590.66;;;22.35;54.46
48200;BME280;33990;44.602;10.976;2022-10-12T13:49:41;101588.13;;;22.33;54.60
48200;BME280;33990;44.602;10.976;2022-10-12T13:54:40;101585.41;;;22.33;53.96
48200;BME280;33990;44.602;10.976;2022-10-12T14:00:22;101582.72;;;22.33;54.11
48200;BME280;33990;44.602;10.976;2022-10-12T14:02:57;101569.22;;;22.33;53.86
48200;BME280;33990;44.602;10.976;2022-10-12T14:05:27;101575.47;;;22.34;53.95
48200;BME280;33990;44.602;10.976;2022-10-12T14:07:58;101571.09;;;22.33;53.88
48200;BME280;33990;44.602;10.976;2022-10-12T14:10:31;101570.22;;;22.32;54.03
48200;BME280;33990;44.602;10.976;2022-10-12T14:13:00;101580.88;;;22.34;54.16
48200;BME280;33990;44.602;10.976;2022-10-12T14:15:33;101574.63;;;22.33;54.13
48200;BME280;33990;44.602;10.976;2022-10-12T14:18:01;101571.94;;;22.33;54.10
48200;BME280;33990;44.602;10.976;2022-10-12T14:20:35;101566.53;;;22.33;54.12
48200;BME280;33990;44.602;10.976;2022-10-12T14:23:13;101570.94;;;22.34;54.21
48200;BME280;33990;44.602;10.976;2022-10-12T14:25:51;101561.13;;;22.33;54.22
48200;BME280;33990;44.602;10.976;2022-10-12T14:28:32;101566.38;;;22.35;54.31
48200;BME280;33990;44.602;10.976;2022-10-12T14:31:01;101560.16;;;22.34;54.33
48200;BME280;33990;44.602;10.976;2022-10-12T14:33:29;101561.84;;;22.35;54.37
48200;BME280;33990;44.602;10.976;2022-10-12T14:36:22;101564.69;;;22.34;54.45
48200;BME280;33990;44.602;10.976;2022-10-12T14:38:51;101563.84;;;22.33;54.36
48200;BME280;33990;44.602;10.976;2022-10-12T14:47:00;101555.59;;;22.35;54.47
48200;BME280;33990;44.602;10.976;2022-10-12T14:49:40;101548.50;;;22.34;54.59
48200;BME280;33990;44.602;10.976;2022-10-12T14:52:23;101550.19;;;22.35;54.76
48200;BME280;33990;44.602;10.976;2022-10-12T14:54:54;101545.06;;;22.32;54.73
48200;BME280;33990;44.602;10.976;2022-10-12T14:57:29;101551.19;;;22.34;54.63
48200;BME280;33990;44.602;10.976;2022-10-12T14:59:57;101554.91;;;22.33;54.77
48200;BME280;33990;44.602;10.976;2022-10-12T15:02:27;101556.59;;;22.34;54.80